TimeCDT,TemperatureF,Dew PointF,Humidity,Sea Level PressureIn,VisibilityMPH,Wind Direction,Wind SpeedMPH,Gust SpeedMPH,PrecipitationIn,Events,Conditions,WindDirDegrees,DateUTC
12:14 AM,64.4,51.8,64,30.04,10.0,NNW,4.6,-,N/A,,Clear,330,2013-06-18 05:14:00
12:34 AM,64.4,51.8,64,30.03,10.0,NNW,4.6,-,N/A,,Clear,330,2013-06-18 05:34:00
12:53 AM,62.6,51.8,68,30.03,10.0,North,3.5,-,N/A,,Clear,350,2013-06-18 05:53:00
1:14 AM,62.6,51.8,68,30.03,10.0,Calm,Calm,-,N/A,,Clear,0,2013-06-18 06:14:00
1:34 AM,62.6,51.8,68,30.03,10.0,NW,3.5,-,N/A,,Clear,320,2013-06-18 06:34:00
1:53 AM,62.6,51.8,68,30.03,10.0,Calm,Calm,-,N/A,,Clear,0,2013-06-18 06:53:00
2:14 AM,62.6,51.8,68,30.04,10.0,NW,4.6,-,N/A,,Clear,320,2013-06-18 07:14:00
2:34 AM,60.8,51.8,72,30.04,10.0,NNW,3.5,-,N/A,,Clear,330,2013-06-18 07:34:00
2:53 AM,60.8,51.8,72,30.03,10.0,NW,4.6,-,N/A,,Clear,320,2013-06-18 07:53:00
3:14 AM,60.8,51.8,72,30.03,10.0,North,4.6,-,N/A,,Clear,350,2013-06-18 08:14:00
3:34 AM,60.8,51.8,72,30.03,10.0,Calm,Calm,-,N/A,,Clear,0,2013-06-18 08:34:00
3:53 AM,60.8,53.6,77,30.04,10.0,Calm,Calm,-,N/A,,Clear,0,2013-06-18 08:53:00
4:14 AM,59.0,51.8,77,30.04,10.0,NW,3.5,-,N/A,,Clear,320,2013-06-18 09:14:00
4:34 AM,59.0,51.8,77,30.05,10.0,Calm,Calm,-,N/A,,Clear,0,2013-06-18 09:34:00
4:53 AM,59.0,51.8,77,30.05,10.0,NNW,3.5,-,N/A,,Clear,330,2013-06-18 09:53:00
5:14 AM,59.0,51.8,77,30.07,10.0,Calm,Calm,-,N/A,,Clear,0,2013-06-18 10:14:00
5:33 AM,59.0,53.6,82,30.06,10.0,NE,4.6,-,N/A,,Clear,40,2013-06-18 10:33:00
5:54 AM,59.0,53.6,82,30.06,10.0,NNE,3.5,-,N/A,,Clear,20,2013-06-18 10:54:00
6:13 AM,59.0,53.6,82,30.06,10.0,NNE,3.5,-,N/A,,Clear,30,2013-06-18 11:13:00
6:33 AM,59.0,53.6,82,30.07,10.0,NNE,3.5,-,N/A,,Clear,20,2013-06-18 11:33:00
6:54 AM,60.8,53.6,77,30.07,10.0,NNE,3.5,-,N/A,,Clear,20,2013-06-18 11:54:00
7:13 AM,62.6,55.4,77,30.08,10.0,NE,4.6,-,N/A,,Clear,40,2013-06-18 12:13:00
7:34 AM,62.6,55.4,77,30.08,10.0,ENE,5.8,-,N/A,,Clear,60,2013-06-18 12:34:00
7:53 AM,62.6,55.4,77,30.09,10.0,ENE,5.8,-,N/A,,Clear,70,2013-06-18 12:53:00
8:13 AM,64.4,57.2,77,30.08,10.0,East,4.6,-,N/A,,Clear,80,2013-06-18 13:13:00
8:34 AM,66.2,55.4,68,30.08,10.0,ENE,4.6,-,N/A,,Clear,70,2013-06-18 13:34:00
8:53 AM,68.0,57.2,68,30.08,10.0,ENE,3.5,-,N/A,,Clear,60,2013-06-18 13:53:00
9:13 AM,68.0,57.2,68,30.08,10.0,ENE,3.5,-,N/A,,Clear,60,2013-06-18 14:13:00
9:34 AM,69.8,55.4,60,30.09,10.0,Calm,Calm,-,N/A,,Clear,0,2013-06-18 14:34:00
9:53 AM,69.8,55.4,60,30.09,10.0,Calm,Calm,-,N/A,,Clear,0,2013-06-18 14:53:00
10:13 AM,71.6,55.4,57,30.08,10.0,Calm,Calm,-,N/A,,Clear,0,2013-06-18 15:13:00
10:34 AM,73.4,53.6,50,30.08,10.0,NE,3.5,-,N/A,,Clear,50,2013-06-18 15:34:00
10:53 AM,73.4,55.4,53,30.08,10.0,NNE,4.6,-,N/A,,Clear,30,2013-06-18 15:53:00
11:14 AM,75.2,53.6,47,30.08,10.0,NNE,5.8,-,N/A,,Clear,30,2013-06-18 16:14:00
11:34 AM,75.2,53.6,47,30.07,10.0,NNE,5.8,-,N/A,,Clear,20,2013-06-18 16:34:00
11:53 AM,77.0,53.6,44,30.07,10.0,NE,8.1,-,N/A,,Clear,40,2013-06-18 16:53:00
12:14 PM,77.0,50.0,39,30.06,10.0,NNE,5.8,-,N/A,,Clear,20,2013-06-18 17:14:00
12:34 PM,77.0,51.8,41,30.07,10.0,NNE,4.6,-,N/A,,Clear,20,2013-06-18 17:34:00
12:53 PM,78.8,50.0,36,30.06,10.0,NNW,5.8,-,N/A,,Clear,330,2013-06-18 17:53:00
1:14 PM,77.0,50.0,39,30.06,10.0,NE,8.1,-,N/A,,Scattered Clouds,40,2013-06-18 18:14:00
1:34 PM,78.8,50.0,36,30.05,10.0,East,5.8,-,N/A,,Scattered Clouds,90,2013-06-18 18:34:00
1:53 PM,78.8,51.8,39,30.05,10.0,East,4.6,-,N/A,,Scattered Clouds,100,2013-06-18 18:53:00
2:14 PM,78.8,50.0,36,30.05,10.0,ENE,4.6,-,N/A,,Clear,70,2013-06-18 19:14:00
2:34 PM,78.8,51.8,39,30.04,10.0,SE,3.5,-,N/A,,Scattered Clouds,140,2013-06-18 19:34:00
2:53 PM,78.8,50.0,36,30.04,10.0,ESE,3.5,-,N/A,,Mostly Cloudy,120,2013-06-18 19:53:00
3:14 PM,78.8,48.2,34,30.03,10.0,South,4.6,-,N/A,,Mostly Cloudy,180,2013-06-18 20:14:00
3:34 PM,78.8,50.0,36,30.03,10.0,East,5.8,-,N/A,,Mostly Cloudy,100,2013-06-18 20:34:00
3:53 PM,78.8,46.4,32,30.02,10.0,Calm,Calm,-,N/A,,Scattered Clouds,0,2013-06-18 20:53:00
4:14 PM,80.6,50.0,34,30.02,10.0,ENE,4.6,-,N/A,,Mostly Cloudy,70,2013-06-18 21:14:00
4:34 PM,80.6,48.2,32,30.02,10.0,ENE,4.6,-,N/A,,Mostly Cloudy,60,2013-06-18 21:34:00
4:53 PM,80.6,48.2,32,30.01,10.0,Calm,Calm,-,N/A,,Clear,0,2013-06-18 21:53:00
5:14 PM,80.6,48.2,32,30.01,10.0,SSE,4.6,-,N/A,,Clear,160,2013-06-18 22:14:00
5:33 PM,80.6,46.4,30,30.01,10.0,Calm,Calm,-,N/A,,Clear,0,2013-06-18 22:33:00
5:53 PM,82.4,48.2,30,30.00,10.0,ESE,6.9,-,N/A,,Mostly Cloudy,110,2013-06-18 22:53:00
6:14 PM,80.6,48.2,32,30.00,10.0,East,8.1,-,N/A,,Scattered Clouds,80,2013-06-18 23:14:00
6:34 PM,80.6,48.2,32,29.99,10.0,ENE,4.6,-,N/A,,Clear,70,2013-06-18 23:34:00
6:53 PM,80.6,46.4,30,29.99,10.0,East,5.8,-,N/A,,Clear,80,2013-06-18 23:53:00
7:14 PM,80.6,46.4,30,29.99,10.0,Calm,Calm,-,N/A,,Clear,0,2013-06-19 00:14:00
7:34 PM,80.6,46.4,30,29.99,10.0,Calm,Calm,-,N/A,,Clear,0,2013-06-19 00:34:00
7:53 PM,80.6,48.2,32,29.99,10.0,ESE,3.5,-,N/A,,Clear,120,2013-06-19 00:53:00
8:14 PM,78.8,50.0,36,29.98,10.0,ESE,8.1,-,N/A,,Clear,120,2013-06-19 01:14:00
8:34 PM,77.0,50.0,39,29.98,10.0,ESE,8.1,-,N/A,,Scattered Clouds,120,2013-06-19 01:34:00
8:53 PM,77.0,51.8,41,29.98,10.0,ESE,5.8,-,N/A,,Scattered Clouds,120,2013-06-19 01:53:00
9:14 PM,75.2,51.8,44,29.99,10.0,ESE,5.8,-,N/A,,Scattered Clouds,120,2013-06-19 02:14:00
9:33 PM,73.4,51.8,47,29.99,10.0,ESE,6.9,-,N/A,,Scattered Clouds,120,2013-06-19 02:33:00
9:54 PM,71.6,51.8,50,30.00,10.0,ESE,5.8,-,N/A,,Scattered Clouds,110,2013-06-19 02:54:00
10:14 PM,71.6,53.6,53,30.01,10.0,ESE,5.8,-,N/A,,Clear,120,2013-06-19 03:14:00
10:33 PM,71.6,51.8,50,30.01,10.0,ESE,5.8,-,N/A,,Clear,110,2013-06-19 03:33:00
10:54 PM,69.8,53.6,56,30.01,10.0,ESE,6.9,-,N/A,,Clear,110,2013-06-19 03:54:00
11:14 PM,69.8,53.6,56,30.01,10.0,ESE,6.9,-,N/A,,Scattered Clouds,120,2013-06-19 04:14:00
11:33 PM,69.8,53.6,56,30.01,10.0,ESE,6.9,-,N/A,,Clear,120,2013-06-19 04:33:00
11:54 PM,68.0,53.6,60,30.02,10.0,ESE,4.6,-,N/A,,Clear,120,2013-06-19 04:54:00